createdAt,value
2019-03-27T00:02:45.886Z,11.07
2019-03-27T00:06:47.791Z,11.43
2019-03-27T00:10:49.862Z,9.83
2019-03-27T00:14:51.773Z,11.90
2019-03-27T00:18:53.677Z,12.53
2019-03-27T00:22:55.573Z,10.98
2019-03-27T00:26:57.555Z,12.07
2019-03-27T00:30:59.619Z,11.53
2019-03-27T00:35:01.540Z,11.43
2019-03-27T00:39:04.391Z,12.03
2019-03-27T00:43:06.445Z,10.43
2019-03-27T00:47:08.450Z,10.30
2019-03-27T00:51:10.356Z,11.60
2019-03-27T00:55:12.862Z,12.17
2019-03-27T00:59:33.109Z,12.47
2019-03-27T01:03:54.271Z,12.90
2019-03-27T01:08:14.524Z,9.25
2019-03-27T01:12:16.499Z,8.23
2019-03-27T01:16:18.398Z,9.57
2019-03-27T01:20:20.291Z,11.30
2019-03-27T01:24:22.198Z,12.90
2019-03-27T01:28:24.084Z,9.35
2019-03-27T01:32:26.065Z,10.77
2019-03-27T01:36:28.028Z,13.57
2019-03-27T01:40:29.931Z,8.93
2019-03-27T01:44:31.844Z,10.37
2019-03-27T01:48:52.769Z,13.23
2019-03-27T01:52:54.676Z,11.53
2019-03-27T01:56:56.612Z,9.48
2019-03-27T02:00:58.504Z,12.37
2019-03-27T02:05:00.429Z,13.08
2019-03-27T02:09:02.345Z,13.03
2019-03-27T02:13:05.432Z,10.80
2019-03-27T02:17:07.369Z,12.53
2019-03-27T02:21:09.403Z,11.63
2019-03-27T02:25:11.456Z,7.80
2019-03-27T02:29:13.339Z,11.80
2019-03-27T02:33:15.252Z,12.13
2019-03-27T02:37:17.162Z,10.08
2019-03-27T02:41:19.074Z,8.27
2019-03-27T02:45:21.950Z,8.63
2019-03-27T02:49:23.846Z,11.07
2019-03-27T02:53:25.811Z,11.83
2019-03-27T02:57:27.901Z,10.33
2019-03-27T03:01:29.808Z,10.00
2019-03-27T03:05:31.746Z,11.23
2019-03-27T03:09:33.641Z,11.30
2019-03-27T03:13:35.531Z,11.57
2019-03-27T03:17:37.434Z,10.00
2019-03-27T03:21:39.420Z,10.27
2019-03-27T03:25:41.323Z,9.15
2019-03-27T03:29:44.138Z,8.55
2019-03-27T03:33:46.017Z,7.70
2019-03-27T03:37:47.921Z,11.23
2019-03-27T03:41:49.894Z,7.80
2019-03-27T03:45:51.815Z,9.73
2019-03-27T03:49:53.701Z,10.30
2019-03-27T03:53:55.732Z,10.95
2019-03-27T03:57:58.248Z,9.03
2019-03-27T04:02:03.692Z,7.30
2019-03-27T04:06:05.607Z,5.90
2019-03-27T04:10:08.140Z,10.63
2019-03-27T04:14:10.019Z,7.20
2019-03-27T04:18:11.927Z,10.00
2019-03-27T04:22:13.817Z,9.77
2019-03-27T04:26:15.711Z,10.33
2019-03-27T04:30:18.860Z,10.00
2019-03-27T04:34:20.761Z,7.17
2019-03-27T04:38:22.650Z,11.43
2019-03-27T04:42:24.561Z,9.90
2019-03-27T04:46:26.752Z,10.13
2019-03-27T04:50:29.737Z,11.47
2019-03-27T04:54:33.260Z,11.67
2019-03-27T04:58:35.157Z,12.03
2019-03-27T05:02:37.084Z,11.03
2019-03-27T05:06:38.963Z,11.33
2019-03-27T05:10:40.882Z,11.40
2019-03-27T05:14:44.005Z,9.03
2019-03-27T05:18:45.934Z,9.40
2019-03-27T05:22:47.830Z,9.30
2019-03-27T05:26:49.735Z,14.47
2019-03-27T05:30:51.733Z,12.00
2019-03-27T05:34:53.632Z,13.88
2019-03-27T05:38:55.525Z,13.55
2019-03-27T05:43:00.921Z,12.13
2019-03-27T05:47:01.553Z,14.25
2019-03-27T05:51:03.442Z,12.97
2019-03-27T05:55:07.121Z,13.50
2019-03-27T05:59:09.030Z,10.20
2019-03-27T06:03:10.960Z,13.00
2019-03-27T06:07:12.873Z,14.07
2019-03-27T06:11:14.778Z,13.00
2019-03-27T06:15:16.687Z,10.27
2019-03-27T06:19:18.582Z,14.70
2019-03-27T06:23:20.477Z,12.23
2019-03-27T06:27:41.550Z,10.43
2019-03-27T06:31:44.318Z,10.77
2019-03-27T06:35:46.220Z,8.80
2019-03-27T06:39:48.135Z,10.93
2019-03-27T06:43:50.043Z,12.63
2019-03-27T06:47:52.034Z,13.18
2019-03-27T06:51:53.939Z,12.53
2019-03-27T06:55:56.674Z,10.88
2019-03-27T06:59:58.575Z,10.85
2019-03-27T07:04:10.436Z,11.97
2019-03-27T07:08:04.857Z,7.70
2019-03-27T07:12:20.210Z,11.30
2019-03-27T07:16:10.343Z,10.72
2019-03-27T07:20:26.833Z,12.15
2019-03-27T07:24:28.741Z,10.03
2019-03-27T07:28:30.643Z,12.13
2019-03-27T07:32:32.569Z,11.37
2019-03-27T07:36:34.454Z,22.47
2019-03-27T07:40:39.087Z,11.60
2019-03-27T07:44:40.973Z,10.17
2019-03-27T07:48:53.228Z,9.10
2019-03-27T07:52:46.481Z,10.55
2019-03-27T07:56:48.371Z,10.57
2019-03-27T08:00:50.325Z,10.50
2019-03-27T08:04:52.239Z,7.47
2019-03-27T08:08:54.136Z,8.83
2019-03-27T08:12:56.041Z,8.00
2019-03-27T08:16:57.929Z,6.50
2019-03-27T08:20:59.824Z,6.60
2019-03-27T08:25:01.928Z,6.17
2019-03-27T08:29:03.806Z,6.57
2019-03-27T08:33:05.715Z,5.43
2019-03-27T08:37:07.606Z,5.00
2019-03-27T08:41:09.506Z,4.80
2019-03-27T08:45:12.312Z,5.15
2019-03-27T08:49:22.018Z,5.53
2019-03-27T08:53:17.785Z,5.10
2019-03-27T08:57:19.664Z,5.40
2019-03-27T09:01:21.633Z,5.10
2019-03-27T09:05:23.509Z,5.40
2019-03-27T09:09:25.483Z,5.27
2019-03-27T09:13:27.385Z,4.70
2019-03-27T09:17:29.276Z,4.67
2019-03-27T09:21:31.179Z,4.80
2019-03-27T09:25:33.072Z,4.27
2019-03-27T09:29:34.958Z,4.33
2019-03-27T09:33:36.862Z,3.70
2019-03-27T09:37:38.813Z,4.17
2019-03-27T09:41:40.699Z,3.20
2019-03-27T09:45:58.827Z,3.13
2019-03-27T09:50:00.742Z,2.80
2019-03-27T09:54:03.698Z,2.50
2019-03-27T09:58:05.773Z,2.90
2019-03-27T10:02:07.852Z,3.30
2019-03-27T10:06:09.751Z,3.00
2019-03-27T10:10:11.942Z,3.43
2019-03-27T10:14:13.921Z,4.00
2019-03-27T10:18:15.803Z,3.30
2019-03-27T10:22:17.810Z,3.60
2019-03-27T10:26:19.690Z,3.40
2019-03-27T10:30:21.578Z,2.00
2019-03-27T10:34:23.461Z,3.03
2019-03-27T10:38:25.356Z,3.23
2019-03-27T10:42:27.244Z,3.00
2019-03-27T10:46:29.118Z,2.30
2019-03-27T10:50:31.004Z,2.30
2019-03-27T10:54:32.894Z,2.60
2019-03-27T10:58:34.869Z,2.33
2019-03-27T11:02:36.737Z,2.00
2019-03-27T11:06:46.452Z,2.47
2019-03-27T11:10:48.347Z,2.80
2019-03-27T11:14:50.327Z,2.87
2019-03-27T11:18:52.219Z,2.87
2019-03-27T11:22:54.148Z,2.90
2019-03-27T11:26:56.051Z,2.87
2019-03-27T11:30:58.146Z,2.80
2019-03-27T11:35:00.350Z,2.67
2019-03-27T11:39:02.394Z,2.50
2019-03-27T11:43:06.103Z,2.70
2019-03-27T11:47:07.991Z,6.10
2019-03-27T11:51:09.967Z,2.10
2019-03-27T11:55:12.077Z,2.10
2019-03-27T11:59:13.964Z,3.30
2019-03-27T12:03:15.947Z,3.00
2019-03-27T12:07:17.911Z,1.93
2019-03-27T12:11:19.804Z,2.77
2019-03-27T12:15:37.944Z,1.97
2019-03-27T12:19:39.841Z,2.53
2019-03-27T12:23:41.788Z,1.90
2019-03-27T12:27:44.461Z,2.57
2019-03-27T12:31:46.351Z,2.00
2019-03-27T12:35:48.539Z,2.27
2019-03-27T12:39:50.448Z,2.60
2019-03-27T12:43:52.368Z,2.47
2019-03-27T12:47:54.352Z,2.35
2019-03-27T12:51:56.333Z,2.50
2019-03-27T12:55:58.237Z,2.37
2019-03-27T13:00:00.281Z,2.22
2019-03-27T13:04:02.188Z,1.95
2019-03-27T13:08:04.649Z,2.00
2019-03-27T13:12:06.540Z,2.45
2019-03-27T13:16:08.431Z,2.37
2019-03-27T13:20:10.870Z,2.40
2019-03-27T13:24:12.844Z,2.20
2019-03-27T13:28:14.738Z,2.87
2019-03-27T13:32:29.569Z,2.43
2019-03-27T13:36:31.558Z,2.60
2019-03-27T13:40:34.438Z,2.67
2019-03-27T13:44:37.612Z,2.40
2019-03-27T13:48:39.634Z,2.10
2019-03-27T13:52:41.739Z,2.35
2019-03-27T13:56:44.542Z,2.20
2019-03-27T14:00:46.449Z,2.10
2019-03-27T14:04:48.347Z,2.20
2019-03-27T14:08:50.406Z,2.10
2019-03-27T14:12:52.306Z,2.25
2019-03-27T14:16:54.204Z,2.10
2019-03-27T14:20:58.038Z,2.20
2019-03-27T14:24:59.936Z,1.90
2019-03-27T14:29:05.589Z,2.27
2019-03-27T14:33:07.476Z,1.80
2019-03-27T14:37:09.387Z,1.90
2019-03-27T14:41:11.283Z,1.90
2019-03-27T14:45:13.356Z,1.97
2019-03-27T14:49:15.263Z,1.70
2019-03-27T14:53:17.245Z,1.50
2019-03-27T14:57:19.166Z,1.67
2019-03-27T15:01:21.148Z,1.40
2019-03-27T15:05:23.057Z,1.57
2019-03-27T15:09:25.658Z,1.57
2019-03-27T15:13:27.622Z,1.80
2019-03-27T15:17:29.808Z,1.53
2019-03-27T15:21:31.713Z,1.40
2019-03-27T15:25:33.657Z,1.40
2019-03-27T15:29:35.620Z,1.50
2019-03-27T15:33:38.511Z,1.83
2019-03-27T15:37:40.410Z,1.40
2019-03-27T15:41:42.316Z,1.37
2019-03-27T15:45:44.818Z,1.67
2019-03-27T15:49:46.719Z,1.67
2019-03-27T15:53:48.670Z,1.47
2019-03-27T15:57:50.568Z,1.70
2019-03-27T16:01:52.451Z,1.57
2019-03-27T16:05:54.343Z,1.92
2019-03-27T16:09:56.274Z,1.80
2019-03-27T16:13:58.174Z,1.83
2019-03-27T16:18:00.070Z,1.80
2019-03-27T16:22:03.514Z,1.83
2019-03-27T16:26:05.473Z,1.60
2019-03-27T16:30:09.078Z,1.70
2019-03-27T16:34:11.936Z,1.70
2019-03-27T16:38:13.831Z,1.70
2019-03-27T16:42:15.963Z,1.60
2019-03-27T16:46:17.891Z,1.37
2019-03-27T16:50:19.792Z,1.80
2019-03-27T16:54:21.704Z,1.30
2019-03-27T16:58:23.634Z,1.30
2019-03-27T17:02:25.554Z,1.23
2019-03-27T17:06:27.462Z,1.40
2019-03-27T17:10:29.368Z,1.30
2019-03-27T17:14:31.351Z,1.40
2019-03-27T17:18:33.265Z,1.20
2019-03-27T17:22:35.189Z,1.50
2019-03-27T17:26:37.097Z,1.00
2019-03-27T17:30:38.977Z,1.30
2019-03-27T17:34:40.897Z,1.40
2019-03-27T17:38:42.814Z,1.10
2019-03-27T17:42:44.953Z,1.53
2019-03-27T17:46:49.992Z,1.50
2019-03-27T17:50:50.450Z,1.80
2019-03-27T17:54:52.361Z,1.70
2019-03-27T17:58:54.285Z,2.10
2019-03-27T18:02:56.201Z,1.70
2019-03-27T18:06:58.118Z,1.45
2019-03-27T18:10:59.991Z,1.70
2019-03-27T18:15:01.991Z,3.13
2019-03-27T18:19:03.901Z,1.87
2019-03-27T18:23:06.636Z,1.90
2019-03-27T18:27:08.541Z,1.70
2019-03-27T18:31:11.147Z,1.67
2019-03-27T18:35:13.259Z,1.57
2019-03-27T18:39:15.149Z,1.27
2019-03-27T18:43:17.047Z,1.20
2019-03-27T18:47:18.938Z,0.97
2019-03-27T18:51:21.471Z,1.40
2019-03-27T18:55:26.826Z,1.20
2019-03-27T18:59:26.947Z,2.27
2019-03-27T19:03:28.845Z,2.10
2019-03-27T19:07:30.813Z,2.20
2019-03-27T19:11:34.946Z,1.53
2019-03-27T19:15:36.819Z,3.57
2019-03-27T19:19:38.704Z,1.30
2019-03-27T19:23:41.567Z,1.50
2019-03-27T19:27:43.449Z,0.83
2019-03-27T19:31:49.128Z,1.20
2019-03-27T19:35:52.701Z,1.70
2019-03-27T19:39:54.610Z,1.52
2019-03-27T19:43:56.512Z,1.13
2019-03-27T19:47:58.415Z,1.00
2019-03-27T19:52:00.294Z,2.65
2019-03-27T19:56:02.190Z,3.10
2019-03-27T20:00:07.316Z,2.83
2019-03-27T20:04:09.212Z,2.20
2019-03-27T20:08:11.102Z,2.05
2019-03-27T20:12:12.987Z,2.50
2019-03-27T20:16:14.880Z,2.23
2019-03-27T20:20:17.046Z,2.80
2019-03-27T20:24:18.941Z,2.98
2019-03-27T20:28:20.834Z,2.40
2019-03-27T20:32:22.705Z,1.80
2019-03-27T20:36:24.599Z,1.60
2019-03-27T20:40:27.775Z,1.67
2019-03-27T20:44:30.737Z,1.70
2019-03-27T20:48:32.631Z,1.87
2019-03-27T20:52:34.507Z,2.20
2019-03-27T20:56:36.401Z,1.70
2019-03-27T21:00:38.284Z,2.20
2019-03-27T21:04:40.172Z,2.50
2019-03-27T21:08:42.071Z,1.93
2019-03-27T21:12:45.052Z,1.65
2019-03-27T21:16:46.973Z,1.93
2019-03-27T21:20:48.850Z,2.30
2019-03-27T21:24:50.753Z,2.70
2019-03-27T21:28:52.655Z,1.80
2019-03-27T21:32:54.539Z,2.00
2019-03-27T21:36:57.408Z,2.40
2019-03-27T21:40:59.298Z,2.10
2019-03-27T21:45:02.165Z,1.75
2019-03-27T21:49:05.205Z,1.70
2019-03-27T21:53:07.150Z,2.98
2019-03-27T21:57:09.061Z,1.20
2019-03-27T22:01:11.128Z,2.23
2019-03-27T22:05:13.087Z,2.63
2019-03-27T22:09:15.029Z,2.17
2019-03-27T22:13:16.954Z,1.60
2019-03-27T22:17:18.819Z,1.90
2019-03-27T22:21:39.891Z,2.73
2019-03-27T22:25:55.345Z,3.20
2019-03-27T22:29:57.363Z,2.83
2019-03-27T22:34:00.326Z,2.45
2019-03-27T22:38:02.363Z,3.30
2019-03-27T22:42:04.322Z,3.90
2019-03-27T22:46:06.448Z,3.80
2019-03-27T22:50:08.912Z,2.77
2019-03-27T22:54:10.969Z,3.50
2019-03-27T22:58:13.191Z,3.73
2019-03-27T23:02:15.548Z,2.97
2019-03-27T23:06:17.434Z,3.77
2019-03-27T23:10:19.334Z,2.83
2019-03-27T23:14:21.218Z,4.00
2019-03-27T23:18:23.148Z,3.20
2019-03-27T23:22:25.117Z,3.17
2019-03-27T23:26:27.094Z,3.00
2019-03-27T23:30:28.978Z,2.63
2019-03-27T23:34:30.950Z,3.10
2019-03-27T23:38:32.845Z,2.50
2019-03-27T23:42:34.901Z,3.47
2019-03-27T23:46:36.783Z,3.20
2019-03-27T23:50:38.668Z,2.10
2019-03-27T23:54:40.548Z,2.00
2019-03-27T23:58:42.432Z,2.50
